Portada
METAR-TAF:

METAR-TAF

Aeropuertos :

Southern Illinois Airport

Carbondale / Murphysboro, Illinois, Estados Unidos

latitud: 37-46-59N, longitud: 089-14-42W, altitud: 125 m

Observación

El informe se hizo hace 49 minutos, a las 18:52 UTC
Viento 8 kt del suroeste
Temperatura 31°C
Humedad 52%
Presión 1023 hPa
Visibilidad: 16.1 km
Cielo despejado

METAR: KMDH 191852Z 22008KT 10SM CLR 31/20 A3021 RMK AO2 SLP225 T03110200

Hora: 14:41 (19:41 UTC)


TAF: falta

Observaciones y pronósticos meteorológicos de más de 4000 aeropuertos (mensajes METAR y TAF).

Los puntos amarillos y rojos representan las estaciones disponibles.

Ponga el ratón en el punto deseado para ver el nombre de la estación.

Haga clic para ver las observaciones y los pronósticos meteorológicos.

Para cambiar el mapa : haga clic en los botones verdes con una cruz de color negro para hacer un zoom, en el botón verde con un guión para alejar o en las flechas verdes para mapas adyacentes.


METAR-TAF: